Thunder radar more information blitzortung!


Radar de pluja more information rain snow radar


Visita la nostra xarxa de llocs de meteo:

Template documentation
and downloads

And another site



No particular awareness of the weather is required.    There are no Weather-warnings

Pagina Historial Weather Underground text

Diari Resum Juny 17, 2017 Unitats:  Mètric    Imperial   Tant
« Previous Dia
SegĂźent Dia »
Diari Setmana Mensual Anual Personalitzada
  Maxima: Minima: Media:
Temperatura: -17.8 °C -5.9 °C -2.4 °C
Punt de rosada: -17.8 °C -9.3 °C -7.9 °C
Humitat: Humidity % 42 % 55 %
Wind Speed: 0 km/h 0 km/h 12.2 km/h
RĂ fegues de vent: 0 km/h - -
Vent:- - SE
Pression baro: 0 hPa 34293.4 hPa -
Precipitacions: 0 mm    
Historical Graphs
 
 
Dades de taula per Juny 17, 2017
Temps Temperatura Punt de rosada Pression baro Vent Wind Speed RĂ fegues de vent Humitat Rainfall Rate (Hourly)
-17.8 °C -17.8 °C 0 hPa Calm     Humidity % 0 mm
00:00 -3.9 °C -9.3 °C 34462.7 hPa SW 6.8 km/h 6.8 km/h 55 % 0 mm
00:05 -3.9 °C -9.2 °C 34462.7 hPa SSW 6 km/h 6 km/h 56 % 0 mm
00:15 -5.2 °C -8.9 °C 34395 hPa Calm   2.6 km/h 66 % 0 mm
00:25 -5.2 °C -8.9 °C 34395 hPa Calm   5.1 km/h 66 % 0 mm
00:35 -5.3 °C -9 °C 34395 hPa NNW 2.6 km/h 2.6 km/h 66 % 0 mm
00:45 -5.3 °C -9.1 °C 34395 hPa NW 2.6 km/h 5.1 km/h 65 % 0 mm
00:55 -5.3 °C -9.1 °C 34395 hPa Calm   2.6 km/h 66 % 0 mm
01:05 -5.4 °C -9.1 °C 34361.1 hPa North 2.6 km/h 5.1 km/h 66 % 0 mm
01:15 -5.4 °C -9.1 °C 34361.1 hPa Calm   2.6 km/h 66 % 0 mm
01:25 -5.4 °C -9.1 °C 34395 hPa NNE 2.6 km/h 5.1 km/h 66 % 0 mm
01:35 -5.8 °C -9.2 °C 34395 hPa Calm     68 % 0 mm
01:45 -5.9 °C -9.2 °C 34395 hPa Calm   5.1 km/h 69 % 0 mm
02:00 -5.8 °C -9.1 °C 34395 hPa Calm   2.6 km/h 69 % 0 mm
02:10 -5.9 °C -9.3 °C 34395 hPa NW 2.6 km/h 5.1 km/h 68 % 0 mm
02:20 -5.8 °C -8.9 °C 34395 hPa Calm   2.6 km/h 70 % 0 mm
02:30 -5.8 °C -9.1 °C 34395 hPa SW 2.6 km/h 2.6 km/h 69 % 0 mm
02:40 -5.6 °C -8.8 °C 34395 hPa SW 2.6 km/h 5.1 km/h 69 % 0 mm
02:50 -5.1 °C -8.6 °C 34395 hPa South 2.6 km/h 2.6 km/h 68 % 0 mm
03:00 -5.1 °C -8.7 °C 34395 hPa SSE 5.1 km/h 5.1 km/h 67 % 0 mm
03:10 -4.9 °C -8.7 °C 34395 hPa South 2.6 km/h 7.7 km/h 66 % 0 mm
03:20 -4.8 °C -8.7 °C 34395 hPa SW 2.6 km/h 5.1 km/h 65 % 0 mm
03:30 -4.7 °C -8.6 °C 34395 hPa SW 2.6 km/h 5.1 km/h 65 % 0 mm
03:40 -4.6 °C -8.6 °C 34395 hPa SW 2.6 km/h 7.7 km/h 64 % 0 mm
03:50 -4.3 °C -8.6 °C 34395 hPa SW 5.1 km/h 5.1 km/h 62 % 0 mm
04:00 -3.8 °C -8.2 °C 34395 hPa Calm   5.1 km/h 61 % 0 mm
04:10 -3.2 °C -7.9 °C 34395 hPa NNW 2.6 km/h 5.1 km/h 60 % 0 mm
04:20 -3.1 °C -8.1 °C 34395 hPa NNE 7.7 km/h 7.7 km/h 58 % 0 mm
04:30 -2.7 °C -7.9 °C 34395 hPa NE 2.6 km/h 5.1 km/h 57 % 0 mm
04:40 -2.6 °C -7.9 °C 34395 hPa NE 2.6 km/h 7.7 km/h 56 % 0 mm
04:50 -2.4 °C -7.9 °C 34395 hPa NE 5.1 km/h 5.1 km/h 55 % 0 mm
05:00 -2.1 °C -7.7 °C 34395 hPa North 2.6 km/h 5.1 km/h 54 % 0 mm
10:02 -1.8 °C -7.7 °C 34395 hPa NE 3.1 km/h 7.6 km/h 53 % 0 mm
10:07 -2.1 °C -7.9 °C 34395 hPa East 6 km/h 6 km/h 53 % 0 mm
10:12 -2.1 °C -8.1 °C 34395 hPa ESE 11.9 km/h 11.9 km/h 52 % 0 mm
10:17 -2.2 °C -8.2 °C 34395 hPa SE 11.9 km/h 11.9 km/h 52 % 0 mm
10:22 -1.9 °C -7.9 °C 34395 hPa ESE 11.9 km/h 11.9 km/h 52 % 0 mm
10:27 -1.7 °C -7.7 °C 34395 hPa NE 9 km/h 9 km/h 52 % 0 mm
10:32 -1.4 °C -7.8 °C 34395 hPa ESE 8 km/h 8 km/h 50 % 0 mm
10:37 -1.6 °C -8 °C 34395 hPa SSE 6 km/h 6 km/h 50 % 0 mm
10:42 -1.6 °C -8.2 °C 34395 hPa NE 6.8 km/h 6.8 km/h 49 % 0 mm
10:47 -1.7 °C -8.1 °C 34361.1 hPa NNE 11.9 km/h 11.9 km/h 50 % 0 mm
10:52 -1.4 °C -8 °C 34361.1 hPa SSE 6 km/h 6 km/h 49 % 0 mm
10:57 -1.3 °C -7.9 °C 34361.1 hPa East 8.5 km/h 8.5 km/h 49 % 0 mm
11:02 -1.1 °C -7.8 °C 34361.1 hPa SSW 9 km/h 9 km/h 48 % 0 mm
11:07 -1.1 °C -7.9 °C 34361.1 hPa WSW 6.8 km/h 6.8 km/h 48 % 0 mm
11:12 -0.6 °C -7.6 °C 34361.1 hPa South 9.8 km/h 9.8 km/h 47 % 0 mm
11:17 -0.6 °C -7.8 °C 34361.1 hPa SW 11.9 km/h 11.9 km/h 46 % 0 mm
11:22 -0.5 °C -7.7 °C 34361.1 hPa WNW 6.8 km/h 6.8 km/h 46 % 0 mm
11:27 -0.2 °C -7.6 °C 34361.1 hPa SSE 6.8 km/h 6.8 km/h 45 % 0 mm
11:32 -0.1 °C -7.6 °C 34361.1 hPa West 11.9 km/h 11.9 km/h 45 % 0 mm
11:37 -0.2 °C -7.6 °C 34361.1 hPa SW 9 km/h 9 km/h 45 % 0 mm
11:42 0 °C -7.7 °C 34361.1 hPa West 3.1 km/h 3.1 km/h 44 % 0 mm
11:47 0.2 °C -7.5 °C 34361.1 hPa WSW 9 km/h 9 km/h 44 % 0 mm
11:52 0.3 °C -7.6 °C 34361.1 hPa NNE 6 km/h 6 km/h 43 % 0 mm
11:57 0.3 °C -7.6 °C 34361.1 hPa South 11.9 km/h 11.9 km/h 43 % 0 mm
12:02 0.2 °C -7.7 °C 34361.1 hPa SE 15 km/h 15 km/h 43 % 0 mm
12:07 -0.1 °C -7.9 °C 34361.1 hPa NE 15.3 km/h 15.3 km/h 43 % 0 mm
12:12 -0.1 °C -7.9 °C 34361.1 hPa ESE 16.6 km/h 16.6 km/h 43 % 0 mm
12:18 -0.1 °C -7.9 °C 34327.3 hPa ENE 15 km/h 15 km/h 43 % 0 mm
12:23 0.3 °C -7.6 °C 34327.3 hPa NE 9 km/h 9 km/h 43 % 0 mm
12:28 0 °C -7.9 °C 34327.3 hPa East 19.6 km/h 19.6 km/h 43 % 0 mm
12:33 -0.1 °C -7.9 °C 34327.3 hPa SE 20.9 km/h 20.9 km/h 43 % 0 mm
12:38 0 °C -7.9 °C 34327.3 hPa SE 15.3 km/h 15.3 km/h 43 % 0 mm
12:43 0 °C -7.9 °C 34327.3 hPa SE 20.9 km/h 20.9 km/h 43 % 0 mm
12:48 -0.1 °C -7.9 °C 34327.3 hPa East 16.6 km/h 16.6 km/h 43 % 0 mm
12:53 -0.3 °C -8.2 °C 34327.3 hPa West 23.8 km/h 23.8 km/h 43 % 0 mm
12:58 -0.3 °C -8.1 °C 34327.3 hPa ESE 20.9 km/h 20.9 km/h 43 % 0 mm
13:03 -0.1 °C -7.9 °C 34327.3 hPa ESE 20.9 km/h 20.9 km/h 43 % 0 mm
13:08 0.2 °C -7.7 °C 34327.3 hPa ESE 17.9 km/h 17.9 km/h 43 % 0 mm
13:13 -0.1 °C -7.9 °C 34327.3 hPa East 17.9 km/h 17.9 km/h 43 % 0 mm
13:18 0.1 °C -7.8 °C 34327.3 hPa East 29.8 km/h 29.8 km/h 43 % 0 mm
13:23 0.1 °C -7.8 °C 34327.3 hPa ESE 17.9 km/h 19.2 km/h 43 % 0 mm
13:28 0.1 °C -7.8 °C 34327.3 hPa ESE 29.8 km/h 29.8 km/h 43 % 0 mm
13:33 0.2 °C -7.7 °C 34327.3 hPa ESE 26.4 km/h 26.4 km/h 43 % 0 mm
13:38 0.1 °C -7.7 °C 34327.3 hPa ENE 20.3 km/h 20.3 km/h 43 % 0 mm
13:43 0.3 °C -7.6 °C 34327.3 hPa SE 23.8 km/h 23.8 km/h 43 % 0 mm
13:48 0.2 °C -7.7 °C 34327.3 hPa NE 22 km/h 22 km/h 43 % 0 mm
13:53 0 °C -7.9 °C 34327.3 hPa ESE 20.9 km/h 20.9 km/h 43 % 0 mm
13:58 0.1 °C -8 °C 34327.3 hPa ESE 20.9 km/h 20.9 km/h 42 % 0 mm
14:03 -0.1 °C -7.9 °C 34327.3 hPa ENE 26.9 km/h 26.9 km/h 43 % 0 mm
14:08 0.1 °C -7.8 °C 34327.3 hPa East 27.2 km/h 27.2 km/h 43 % 0 mm
14:13 0 °C -7.9 °C 34327.3 hPa ENE 25.4 km/h 25.4 km/h 43 % 0 mm
14:18 -0.1 °C -7.7 °C 34327.3 hPa NE 20.9 km/h 20.9 km/h 44 % 0 mm
14:23 0 °C -7.7 °C 34327.3 hPa ESE 26.9 km/h 26.9 km/h 44 % 0 mm
14:28 0.1 °C -7.6 °C 34327.3 hPa East 20.9 km/h 20.9 km/h 44 % 0 mm
14:33 -0.1 °C -7.5 °C 34293.4 hPa ESE 29.8 km/h 29.8 km/h 45 % 0 mm
14:38 0.1 °C -7.6 °C 34293.4 hPa ESE 29.8 km/h 29.8 km/h 44 % 0 mm
14:43 -0.1 °C -7.6 °C 34293.4 hPa East 20.9 km/h 20.9 km/h 45 % 0 mm
14:48 -0.1 °C -7.5 °C 34293.4 hPa NE 20.9 km/h 20.9 km/h 45 % 0 mm
14:53 -0.1 °C -7.3 °C 34293.4 hPa ESE 23.8 km/h 23.8 km/h 46 % 0 mm
14:54 -0.2 °C -7.4 °C 34293.4 hPa East 26.9 km/h 26.9 km/h 46 % 0 mm
14:59 -0.1 °C -7.3 °C 34293.4 hPa WNW 15 km/h 15 km/h 46 % 0 mm
15:04 -0.1 °C -7.3 °C 34327.3 hPa ESE 32.8 km/h 32.8 km/h 46 % 0 mm
15:09 -0.1 °C -7.3 °C 34327.3 hPa ESE 17.9 km/h 17.9 km/h 46 % 0 mm
15:14 -0.1 °C -7.3 °C 34327.3 hPa ENE 26.9 km/h 26.9 km/h 46 % 0 mm
15:19 0 °C -7.1 °C 34327.3 hPa ESE 20.9 km/h 20.9 km/h 47 % 0 mm
15:24 -0.2 °C -7.1 °C 34327.3 hPa East 35.7 km/h 35.7 km/h 48 % 0 mm
15:29 -0.1 °C -7 °C 34327.3 hPa ESE 20.9 km/h 20.9 km/h 48 % 0 mm
15:34 -0.2 °C -7.3 °C 34327.3 hPa East 29.8 km/h 29.8 km/h 47 % 0 mm
15:39 -0.3 °C -7.5 °C 34327.3 hPa NE 20.9 km/h 20.9 km/h 46 % 0 mm
15:44 -0.1 °C -7.3 °C 34327.3 hPa ESE 15 km/h 15 km/h 46 % 0 mm
15:49 0.1 °C -7.3 °C 34327.3 hPa ESE 17.9 km/h 17.9 km/h 45 % 0 mm
15:54 -0.2 °C -7.7 °C 34327.3 hPa ENE 29.8 km/h 29.8 km/h 45 % 0 mm
15:59 0 °C -7.7 °C 34327.3 hPa ENE 15.6 km/h 15.6 km/h 44 % 0 mm
16:04 -0.1 °C -7.7 °C 34293.4 hPa ESE 26.9 km/h 26.9 km/h 44 % 0 mm
16:09 -0.1 °C -7.9 °C 34293.4 hPa SSE 23.8 km/h 23.8 km/h 43 % 0 mm
16:15 -0.2 °C -8.1 °C 34327.3 hPa NE 20.9 km/h 20.9 km/h 43 % 0 mm
16:20 -0.3 °C -8.3 °C 34327.3 hPa ENE 23.8 km/h 23.8 km/h 42 % 0 mm
16:25 -0.2 °C -8.3 °C 34327.3 hPa ESE 20.9 km/h 20.9 km/h 42 % 0 mm
16:30 -0.3 °C -8.4 °C 34327.3 hPa ESE 22.5 km/h 22.5 km/h 42 % 0 mm
16:35 -0.4 °C -8.4 °C 34327.3 hPa ENE 33.6 km/h 33.6 km/h 42 % 0 mm
16:40 -0.4 °C -8.3 °C 34327.3 hPa ESE 15.3 km/h 15.3 km/h 43 % 0 mm
16:45 -0.4 °C -8.3 °C 34327.3 hPa ENE 26.9 km/h 26.9 km/h 43 % 0 mm
16:46 -0.4 °C -8.3 °C 34327.3 hPa ESE 19.2 km/h 19.2 km/h 43 % 0 mm
16:51 -0.5 °C -8.3 °C 34327.3 hPa East 18.3 km/h 18.3 km/h 43 % 0 mm
16:56 -0.6 °C -8.6 °C 34327.3 hPa NE 20.9 km/h 20.9 km/h 42 % 0 mm
17:01 -0.5 °C -8.3 °C 34327.3 hPa ESE 26.9 km/h 26.9 km/h 43 % 0 mm
17:06 -0.6 °C -8.4 °C 34327.3 hPa ENE 15 km/h 15 km/h 43 % 0 mm
17:11 -0.7 °C -8.3 °C 34327.3 hPa East 15 km/h 15 km/h 44 % 0 mm
17:16 -0.6 °C -8.2 °C 34327.3 hPa ENE 23.8 km/h 23.8 km/h 44 % 0 mm
17:21 -0.8 °C -8.2 °C 34327.3 hPa ESE 33.6 km/h 33.6 km/h 45 % 0 mm
17:26 -0.9 °C -8.3 °C 34327.3 hPa SE 22.5 km/h 22.5 km/h 45 % 0 mm
17:31 -1.1 °C -8.2 °C 34327.3 hPa ESE 20.9 km/h 20.9 km/h 46 % 0 mm
17:36 -1.2 °C -8.2 °C 34327.3 hPa SE 26.9 km/h 26.9 km/h 47 % 0 mm
17:41 -1.3 °C -8.3 °C 34327.3 hPa ESE 32.8 km/h 32.8 km/h 47 % 0 mm
17:46 -1.4 °C -8.2 °C 34327.3 hPa ENE 15 km/h 15 km/h 48 % 0 mm
17:47 -1.4 °C -8.2 °C 34327.3 hPa NW 25.4 km/h 25.4 km/h 48 % 0 mm
17:52 -1.4 °C -8.2 °C 34327.3 hPa NE 15 km/h 15 km/h 48 % 0 mm
17:57 -1.5 °C -8.1 °C 34327.3 hPa ENE 28.2 km/h 28.2 km/h 49 % 0 mm
18:02 -1.4 °C -8 °C 34327.3 hPa East 17.9 km/h 17.9 km/h 49 % 0 mm
18:07 -1.4 °C -7.9 °C 34327.3 hPa SSE 15 km/h 16.6 km/h 49 % 0 mm
18:12 -1.4 °C -7.8 °C 34327.3 hPa ESE 15 km/h 15 km/h 50 % 0 mm
18:13 -1.5 °C -7.9 °C 34327.3 hPa ENE 26.9 km/h 26.9 km/h 50 % 0 mm
18:18 -1.6 °C -7.9 °C 34293.4 hPa SE 17.9 km/h 17.9 km/h 50 % 0 mm
18:23 -1.5 °C -7.9 °C 34293.4 hPa ESE 22 km/h 22 km/h 50 % 0 mm
18:28 -1.7 °C -8.1 °C 34293.4 hPa East 17.9 km/h 17.9 km/h 50 % 0 mm
18:33 -1.7 °C -7.7 °C 34293.4 hPa ENE 23.8 km/h 23.8 km/h 52 % 0 mm
18:38 -1.7 °C -7.7 °C 34293.4 hPa ENE 15 km/h 15 km/h 52 % 0 mm
18:43 -1.8 °C -7.8 °C 34293.4 hPa ENE 20.9 km/h 20.9 km/h 52 % 0 mm
18:48 -1.8 °C -7.8 °C 34293.4 hPa East 19.6 km/h 19.6 km/h 52 % 0 mm
18:53 -1.8 °C -7.8 °C 34293.4 hPa East 17.9 km/h 17.9 km/h 52 % 0 mm
18:58 -1.9 °C -7.9 °C 34293.4 hPa ESE 26.9 km/h 26.9 km/h 52 % 0 mm
18:59 -2 °C -8 °C 34293.4 hPa East 26.9 km/h 26.9 km/h 52 % 0 mm
19:04 -2 °C -8 °C 34293.4 hPa ENE 17.9 km/h 17.9 km/h 52 % 0 mm
19:09 -1.9 °C -7.9 °C 34293.4 hPa NNE 20.9 km/h 20.9 km/h 52 % 0 mm
19:14 -2.1 °C -8.1 °C 34293.4 hPa ESE 23.8 km/h 23.8 km/h 52 % 0 mm
19:19 -2.1 °C -8.1 °C 34293.4 hPa North 11.9 km/h 11.9 km/h 52 % 0 mm
19:20 -4.4 °C -7.7 °C 34327.3 hPa SW 2.6 km/h 2.6 km/h 69 % 0 mm
19:24 -2.1 °C -8.1 °C 34293.4 hPa East 20.9 km/h 20.9 km/h 52 % 0 mm
19:29 -2.2 °C -8 °C 34293.4 hPa ENE 20.9 km/h 20.9 km/h 53 % 0 mm
19:30 -4.4 °C -7.8 °C 34327.3 hPa SW 2.6 km/h 2.6 km/h 69 % 0 mm
19:34 -2.1 °C -7.9 °C 34293.4 hPa East 11.9 km/h 11.9 km/h 53 % 0 mm
19:39 -2.1 °C -7.9 °C 34293.4 hPa East 17.9 km/h 17.9 km/h 53 % 0 mm
19:40 -4.4 °C -7.7 °C 34327.3 hPa Calm   5.1 km/h 70 % 0 mm
19:44 -2.2 °C -7.9 °C 34293.4 hPa ESE 9 km/h 9 km/h 54 % 0 mm
19:49 -2.2 °C -7.9 °C 34293.4 hPa ENE 20.9 km/h 20.9 km/h 54 % 0 mm
19:50 -4.6 °C -7.7 °C 34327.3 hPa SW 2.6 km/h 5.1 km/h 71 % 0 mm
19:54 -2.2 °C -7.9 °C 34293.4 hPa ESE 17.9 km/h 17.9 km/h 54 % 0 mm
19:59 -2.3 °C -7.9 °C 34293.4 hPa SSE 9 km/h 9 km/h 54 % 0 mm
20:00 -4.7 °C -7.7 °C 34327.3 hPa SW 2.6 km/h 5.1 km/h 71 % 0 mm
20:04 -2.3 °C -7.9 °C 34327.3 hPa ESE 15 km/h 15 km/h 54 % 0 mm
20:09 -2.3 °C -7.8 °C 34327.3 hPa ESE 15.3 km/h 15.3 km/h 55 % 0 mm
20:10 -4.7 °C -7.7 °C 34327.3 hPa SW 2.6 km/h 5.1 km/h 72 % 0 mm
20:14 -2.3 °C -7.8 °C 34327.3 hPa East 16.1 km/h 16.1 km/h 55 % 0 mm
20:19 -2.4 °C -7.9 °C 34327.3 hPa NE 16.6 km/h 16.6 km/h 55 % 0 mm
20:20 -4.8 °C -7.7 °C 34327.3 hPa SW 5.1 km/h 5.1 km/h 72 % 0 mm
20:24 -2.4 °C -7.9 °C 34327.3 hPa ESE 12.7 km/h 12.7 km/h 55 % 0 mm
20:29 -2.5 °C -7.9 °C 34327.3 hPa ESE 15 km/h 15 km/h 55 % 0 mm
20:30 -4.8 °C -7.7 °C 34327.3 hPa SW 2.6 km/h 5.1 km/h 73 % 0 mm
20:34 -2.6 °C -8 °C 34327.3 hPa NE 11.9 km/h 11.9 km/h 55 % 0 mm
20:39 -2.6 °C -8.1 °C 34327.3 hPa ENE 9.8 km/h 9.8 km/h 55 % 0 mm
20:40 -4.8 °C -7.7 °C 34361.1 hPa WSW 5.1 km/h 7.7 km/h 73 % 0 mm
20:44 -2.6 °C -7.9 °C 34327.3 hPa NE 9 km/h 9 km/h 56 % 0 mm
20:49 -2.6 °C -7.9 °C 34293.4 hPa ESE 6.3 km/h 6.3 km/h 56 % 0 mm
20:50 -4.9 °C -7.6 °C 34361.1 hPa WSW 2.6 km/h 5.1 km/h 74 % 0 mm
20:54 -2.6 °C -7.9 °C 34293.4 hPa SE 6.8 km/h 6.8 km/h 56 % 0 mm
20:59 -2.7 °C -7.9 °C 34293.4 hPa East 6.3 km/h 6.3 km/h 56 % 0 mm
21:00 -4.9 °C -7.6 °C 34327.3 hPa SW 2.6 km/h 5.1 km/h 75 % 0 mm
21:04 -2.7 °C -8 °C 34327.3 hPa WSW 6 km/h 6 km/h 56 % 0 mm
21:09 -2.7 °C -8 °C 34327.3 hPa WSW 6 km/h 6 km/h 56 % 0 mm
21:10 -5 °C -7.6 °C 34327.3 hPa SW 2.6 km/h 5.1 km/h 75 % 0 mm
21:14 -2.7 °C -8 °C 34327.3 hPa Calm     56 % 0 mm
21:19 -2.8 °C -8.1 °C 34327.3 hPa SSE 3.1 km/h   56 % 0 mm
21:20 -5.1 °C -7.4 °C 34327.3 hPa SW 2.6 km/h 5.1 km/h 77 % 0 mm
21:24 -2.8 °C -8.1 °C 34327.3 hPa WSW 3.1 km/h   56 % 0 mm
21:29 -2.8 °C -7.9 °C 34327.3 hPa WSW 3.1 km/h   57 % 0 mm
21:30 -5.1 °C -7.4 °C 34327.3 hPa WSW 2.6 km/h 5.1 km/h 77 % 0 mm
21:34 -2.8 °C -7.9 °C 34293.4 hPa WSW 9 km/h 9 km/h 57 % 0 mm
21:39 -2.9 °C -7.9 °C 34293.4 hPa WSW 6 km/h 6 km/h 58 % 0 mm
21:40 -5.1 °C -7.3 °C 34327.3 hPa Calm   5.1 km/h 79 % 0 mm
21:44 -3 °C -7.8 °C 34293.4 hPa SW 6 km/h 6 km/h 59 % 0 mm
21:49 -3 °C -7.7 °C 34327.3 hPa SW 6.3 km/h 6.3 km/h 60 % 0 mm
21:50 -5.2 °C -7.3 °C 34327.3 hPa Calm   5.1 km/h 79 % 0 mm
21:54 -3.1 °C -7.8 °C 34327.3 hPa SW 4.2 km/h 4.2 km/h 60 % 0 mm
21:59 -3.2 °C -7.7 °C 34327.3 hPa SW 6 km/h 6 km/h 61 % 0 mm
22:00 -5.2 °C -7.2 °C 34327.3 hPa Calm     80 % 0 mm
22:04 -3.2 °C -7.7 °C 34327.3 hPa WNW 6 km/h 6 km/h 61 % 0 mm
22:09 -3.3 °C -7.7 °C 34327.3 hPa SW 6 km/h 6 km/h 62 % 0 mm
22:10 -5.3 °C -7.3 °C 34327.3 hPa Calm   5.1 km/h 80 % 0 mm
22:14 -3.4 °C -7.6 °C 34327.3 hPa SW 6 km/h 6 km/h 63 % 0 mm
22:19 -3.4 °C -7.7 °C 34293.4 hPa SW 11.9 km/h 11.9 km/h 63 % 0 mm
22:20 -5.4 °C -7.4 °C 34327.3 hPa Calm     80 % 0 mm
22:24 -3.5 °C -7.6 °C 34293.4 hPa SSW 6 km/h 6 km/h 64 % 0 mm
22:29 -3.6 °C -7.6 °C 34293.4 hPa SW 6.3 km/h 6.3 km/h 64 % 0 mm
22:30 -5.6 °C -7.7 °C 34327.3 hPa Calm     79 % 0 mm
22:34 -3.6 °C -7.6 °C 34327.3 hPa SW 6 km/h 6 km/h 65 % 0 mm
22:39 -3.6 °C -7.6 °C 34327.3 hPa SW 6 km/h 6 km/h 65 % 0 mm
22:40 -5.6 °C -7.7 °C 34327.3 hPa Calm     79 % 0 mm
22:44 -3.7 °C -7.7 °C 34327.3 hPa SW 6 km/h 6 km/h 65 % 0 mm
22:49 -3.8 °C -7.7 °C 34327.3 hPa WSW 8 km/h 8 km/h 65 % 0 mm
22:50 -5.6 °C -7.7 °C 34327.3 hPa Calm   2.6 km/h 79 % 0 mm
22:54 -3.8 °C -7.6 °C 34327.3 hPa WSW 6 km/h 6 km/h 66 % 0 mm
22:59 -3.9 °C -7.7 °C 34327.3 hPa WSW 3.1 km/h 3.1 km/h 66 % 0 mm
23:00 -5.7 °C -7.7 °C 34327.3 hPa Calm   2.6 km/h 80 % 0 mm
23:04 -3.9 °C -7.7 °C 34327.3 hPa WSW 6.3 km/h 6.3 km/h 66 % 0 mm
23:09 -3.9 °C -7.6 °C 34327.3 hPa WSW 6 km/h 6 km/h 67 % 0 mm
23:10 -5.7 °C -7.6 °C 34293.4 hPa Calm     81 % 0 mm
23:14 -3.9 °C -7.6 °C 34327.3 hPa SSW 7.6 km/h 7.6 km/h 67 % 0 mm
23:19 -3.9 °C -7.6 °C 34327.3 hPa WSW 9 km/h 9 km/h 67 % 0 mm
23:20 -5.8 °C -7.7 °C 34293.4 hPa Calm     81 % 0 mm
23:24 -4 °C -7.6 °C 34327.3 hPa SW 9 km/h 9 km/h 67 % 0 mm
23:29 -4.1 °C -7.7 °C 34327.3 hPa SW 9 km/h 9 km/h 67 % 0 mm
23:30 -5.8 °C -7.6 °C 34327.3 hPa SE 2.6 km/h 2.6 km/h 82 % 0 mm
23:34 -4.1 °C -7.6 °C 34327.3 hPa SW 6.8 km/h 6.8 km/h 68 % 0 mm
23:39 -4.2 °C -7.7 °C 34327.3 hPa SW 6 km/h 6 km/h 68 % 0 mm
23:40 -5.8 °C -7.6 °C 34327.3 hPa Calm     82 % 0 mm
23:44 -4.2 °C -7.7 °C 34327.3 hPa WSW 9 km/h 9 km/h 68 % 0 mm
23:49 -4.2 °C -7.7 °C 34327.3 hPa SW 10.3 km/h 10.3 km/h 68 % 0 mm
23:50 -5.8 °C -7.6 °C 34327.3 hPa East 2.6 km/h 5.1 km/h 82 % 0 mm
23:54 -4.2 °C -7.7 °C 34327.3 hPa WSW 6 km/h 6 km/h 68 % 0 mm
23:59 -4.3 °C -7.8 °C 34327.3 hPa SW 6 km/h 6 km/h 68 % 0 mm
Meteo Sesrovires
Elogis d' Weather Underground - 1.75 mb

Guio original per  Jim McMurry - jmcmurry@mwt.net Adaptat per a la plantilla per  Wim van der Kuil - Leuven-Template.eu

Trobareu la nostra informacio del temps tambe a:

Weather Underground

AWEKAS